Time;durP1;ratioP1;P1;durP2;ratioP2;P2;SDS_P1;SDS_P2;PMS_P1;PMS_P2;Temp;Humidity;BMP_temperature;BMP_pressure;BME280_temperature;BME280_humidity;BME280_pressure;Samples;Min_cycle;Max_cycle;Signal;HPM_P1;HPM_P2
2022/10/22 00:02:20;;;;;;;19.07;15.40;;;;;;;10.48;95.36;100227.50;1707631;84;21021;-73
2022/10/22 00:04:48;;;;;;;19.00;14.93;;;;;;;10.48;95.21;100228.81;1707584;84;21016;-73
2022/10/22 00:07:18;;;;;;;18.60;14.63;;;;;;;10.47;95.35;100222.73;1707934;84;21442;-73
2022/10/22 00:09:46;;;;;;;24.18;16.67;;;;;;;10.51;95.45;100219.98;1707566;84;21034;-74
2022/10/22 00:12:15;;;;;;;24.07;16.50;;;;;;;10.52;95.55;100212.50;1707781;83;21087;-74
2022/10/22 00:14:42;;;;;;;21.97;15.77;;;;;;;10.53;95.61;100211.58;1707404;84;21048;-73
2022/10/22 00:17:09;;;;;;;21.00;15.75;;;;;;;10.56;95.75;100210.14;1689847;84;21047;-74
2022/10/22 00:19:36;;;;;;;20.90;14.87;;;;;;;10.59;95.69;100213.52;1707883;83;21012;-73
2022/10/22 00:22:07;;;;;;;22.43;15.50;;;;;;;10.61;95.63;100201.64;1707503;83;21087;-73
2022/10/22 00:24:36;;;;;;;16.90;14.18;;;;;;;10.63;95.65;100203.29;1707502;84;21145;-74
2022/10/22 00:27:04;;;;;;;20.23;16.27;;;;;;;10.66;95.75;100201.85;1707529;83;21012;-76
2022/10/22 00:29:31;;;;;;;19.80;14.98;;;;;;;10.68;95.79;100197.88;1707896;84;21040;-74
2022/10/22 00:31:59;;;;;;;17.73;15.25;;;;;;;10.69;95.85;100193.02;1707548;84;21051;-73
2022/10/22 00:34:26;;;;;;;18.05;15.23;;;;;;;10.68;95.82;100192.17;1707780;84;21013;-82
2022/10/22 00:36:54;;;;;;;20.13;15.37;;;;;;;10.69;95.83;100184.69;1707573;84;21093;-73
2022/10/22 00:39:23;;;;;;;17.77;14.43;;;;;;;10.70;95.69;100189.03;1707614;84;21550;-73
2022/10/22 00:41:53;;;;;;;18.85;15.45;;;;;;;10.71;95.58;100184.64;1707619;83;21453;-73
2022/10/22 00:45:01;;;;;;;18.15;15.15;;;;;;;10.70;95.56;100182.48;1690124;84;21036;-73
2022/10/22 00:47:33;;;;;;;17.32;14.50;;;;;;;10.71;95.54;100178.93;1707668;83;20988;-73
2022/10/22 00:50:03;;;;;;;15.98;13.98;;;;;;;10.74;95.73;100173.17;1690081;84;21798;-73
2022/10/22 00:52:31;;;;;;;20.32;15.55;;;;;;;10.75;95.88;100173.09;1707665;83;20980;-73
2022/10/22 00:54:59;;;;;;;17.10;15.08;;;;;;;10.75;95.87;100171.78;1677746;85;21052;-73
2022/10/22 00:57:27;;;;;;;16.97;14.33;;;;;;;10.74;95.80;100164.00;1707688;83;21533;-73
2022/10/22 00:59:56;;;;;;;19.17;14.78;;;;;;;10.71;95.94;100166.29;1707684;83;21004;-74
2022/10/22 01:02:23;;;;;;;23.07;15.97;;;;;;;10.69;95.88;100163.72;1707609;83;21116;-74
2022/10/22 01:04:50;;;;;;;18.93;14.53;;;;;;;10.68;95.81;100161.17;1707948;84;21029;-74
2022/10/22 01:07:21;;;;;;;20.52;15.18;;;;;;;10.66;95.92;100157.76;1707494;84;21481;-73
2022/10/22 01:10:15;;;;;;;20.40;15.17;;;;;;;10.67;95.82;100159.02;1690142;84;20925;-76
2022/10/22 01:13:11;;;;;;;18.43;15.00;;;;;;;10.64;95.71;100162.20;1690031;84;21013;-74
2022/10/22 01:15:53;;;;;;;24.37;16.25;;;;;;;10.63;95.77;100169.22;1690066;84;21911;-73
2022/10/22 01:18:46;;;;;;;19.40;15.43;;;;;;;10.63;95.79;100180.16;1706888;84;20972;-73
2022/10/22 01:21:38;;;;;;;19.33;15.00;;;;;;;10.60;95.65;100195.55;1687295;84;20944;-74
2022/10/22 01:24:13;;;;;;;20.12;15.90;;;;;;;10.59;95.67;100195.17;1687315;84;21023;-74
2022/10/22 01:27:11;;;;;;;20.37;15.32;;;;;;;10.57;95.74;100204.86;1676802;85;21005;-76
2022/10/22 01:30:02;;;;;;;20.40;15.93;;;;;;;10.54;95.65;100195.81;1689709;84;21462;-76
2022/10/22 01:32:33;;;;;;;18.07;15.00;;;;;;;10.51;95.67;100184.61;1707651;84;21339;-80
2022/10/22 01:35:04;;;;;;;18.40;15.30;;;;;;;10.49;95.81;100184.66;1708012;83;20999;-73
2022/10/22 01:37:36;;;;;;;20.83;15.93;;;;;;;10.51;96.11;100182.83;1707657;83;21078;-73
2022/10/22 01:40:06;;;;;;;19.77;15.25;;;;;;;10.52;96.06;100177.13;1682333;84;21129;-73
2022/10/22 01:42:33;;;;;;;;;;;;;;;10.54;96.29;100181.39;1710146;84;21139;-74
2022/10/22 01:45:00;;;;;;;19.40;15.67;;;;;;;10.54;96.23;100176.16;1707628;84;20251;-74
2022/10/22 01:47:39;;;;;;;22.23;15.27;;;;;;;10.55;96.13;100178.31;1706260;83;21468;-73
2022/10/22 01:50:37;;;;;;;19.42;14.45;;;;;;;10.55;96.12;100161.28;1689996;84;21510;-80
2022/10/22 01:53:29;;;;;;;20.27;15.10;;;;;;;10.56;96.20;100144.63;1702676;84;21004;-74
2022/10/22 01:56:17;;;;;;;19.63;15.43;;;;;;;10.56;96.18;100142.00;1702596;84;21146;-74
2022/10/22 01:59:16;;;;;;;19.57;15.53;;;;;;;10.56;96.32;100146.81;1689965;84;21475;-82
2022/10/22 02:01:57;;;;;;;20.00;15.78;;;;;;;10.58;96.37;100147.58;1666104;85;21521;-74
2022/10/22 02:04:35;;;;;;;;;;;;;;;10.59;96.38;100152.39;1668486;86;21071;-77
2022/10/22 02:07:06;;;;;;;21.17;15.97;;;;;;;10.60;96.54;100148.38;1690023;84;20455;-74
2022/10/22 02:09:35;;;;;;;21.77;16.10;;;;;;;10.60;96.40;100137.05;1689983;84;21781;-74
2022/10/22 02:12:05;;;;;;;20.40;15.73;;;;;;;10.60;96.37;100122.64;1689674;84;21027;-73
2022/10/22 02:14:35;;;;;;;21.40;14.30;;;;;;;10.61;96.45;100119.08;1690122;84;21009;-74
2022/10/22 02:17:02;;;;;;;20.68;15.03;;;;;;;10.60;96.48;100120.02;1690197;84;21030;-73
2022/10/22 02:19:56;;;;;;;22.93;15.37;;;;;;;10.59;96.37;100134.89;1677629;84;21130;-73
2022/10/22 02:22:25;;;;;;;20.90;15.25;;;;;;;10.58;96.45;100140.18;1689949;84;22236;-78
2022/10/22 02:24:52;;;;;;;20.33;15.30;;;;;;;10.56;96.43;100140.27;1689958;84;21027;-74
2022/10/22 02:27:34;;;;;;;19.17;14.83;;;;;;;10.57;96.59;100144.58;1689607;84;21030;-74
2022/10/22 02:30:06;;;;;;;18.07;14.83;;;;;;;10.60;96.73;100138.36;1689907;84;21046;-74
2022/10/22 02:32:46;;;;;;;19.03;14.87;;;;;;;10.60;96.50;100151.00;1690032;84;21458;-76
2022/10/22 02:35:18;;;;;;;16.73;13.83;;;;;;;10.61;96.40;100164.95;1689081;84;21138;-74
2022/10/22 02:37:46;;;;;;;19.35;14.03;;;;;;;10.61;96.49;100163.64;1691344;84;21054;-74
2022/10/22 02:40:13;;;;;;;20.62;14.43;;;;;;;10.63;96.52;100170.98;1702505;83;21059;-76
2022/10/22 02:42:42;;;;;;;18.97;14.90;;;;;;;10.65;96.46;100177.88;1690321;84;21009;-74
2022/10/22 02:45:10;;;;;;;20.95;15.75;;;;;;;10.65;96.37;100177.03;1702474;84;21047;-78
2022/10/22 02:47:36;;;;;;;19.12;14.23;;;;;;;10.67;96.44;100168.66;1673843;85;21120;-76
2022/10/22 02:50:05;;;;;;;20.35;14.93;;;;;;;10.67;96.25;100173.90;1707461;83;21498;-74
2022/10/22 02:52:32;;;;;;;18.97;14.50;;;;;;;10.65;96.26;100177.03;1707526;84;21472;-73
2022/10/22 02:54:59;;;;;;;18.93;14.43;;;;;;;10.65;96.11;100178.34;1707573;84;21020;-75
2022/10/22 02:57:26;;;;;;;17.12;14.63;;;;;;;10.66;96.17;100179.58;1689934;84;21403;-74
2022/10/22 02:59:54;;;;;;;18.70;14.38;;;;;;;10.66;96.17;100180.03;1707470;84;21922;-73
2022/10/22 03:02:21;;;;;;;18.63;14.17;;;;;;;10.68;96.25;100175.59;1677510;85;21517;-77
2022/10/22 03:04:48;;;;;;;19.57;14.47;;;;;;;10.71;96.37;100180.70;1707472;83;21015;-73
2022/10/22 03:07:16;;;;;;;18.90;14.20;;;;;;;10.72;96.18;100175.84;1677921;85;21008;-74
2022/10/22 03:09:43;;;;;;;18.27;14.35;;;;;;;10.75;96.25;100169.63;1707587;83;21020;-74
2022/10/22 03:12:10;;;;;;;17.80;14.20;;;;;;;10.77;96.15;100174.36;1707612;84;21141;-73
2022/10/22 03:14:38;;;;;;;18.07;14.03;;;;;;;10.78;96.17;100173.00;1707445;84;20936;-73
2022/10/22 03:17:05;;;;;;;17.37;14.10;;;;;;;10.79;96.18;100170.75;1707471;84;21027;-76
2022/10/22 03:19:32;;;;;;;17.85;14.23;;;;;;;10.80;96.21;100163.27;1707611;84;20993;-73
2022/10/22 03:22:07;;;;;;;17.62;14.28;;;;;;;10.82;96.34;100171.09;1707522;84;21517;-73
2022/10/22 03:24:44;;;;;;;18.10;13.70;;;;;;;10.81;96.29;100157.56;1707444;84;21194;-74
2022/10/22 03:27:14;;;;;;;19.17;13.85;;;;;;;10.83;96.36;100168.85;1689835;84;21543;-74
2022/10/22 03:29:42;;;;;;;19.60;14.40;;;;;;;10.85;96.34;100160.01;1707692;84;21035;-75
2022/10/22 03:32:08;;;;;;;18.23;13.25;;;;;;;10.85;96.30;100149.52;1707724;84;21010;-73
2022/10/22 03:34:35;;;;;;;16.17;13.40;;;;;;;10.84;96.21;100153.07;1707560;84;21552;-74
2022/10/22 03:37:03;;;;;;;19.17;13.75;;;;;;;10.84;96.04;100140.42;1689914;84;21373;-80
2022/10/22 03:39:32;;;;;;;19.12;14.73;;;;;;;10.82;96.02;100152.73;1707528;83;21008;-74
2022/10/22 03:42:00;;;;;;;17.97;14.57;;;;;;;10.82;96.15;100144.88;1690450;84;21457;-73
2022/10/22 03:44:27;;;;;;;20.00;13.83;;;;;;;10.81;96.01;100147.95;1707526;83;21478;-80
2022/10/22 03:46:54;;;;;;;18.90;13.85;;;;;;;10.81;96.05;100153.63;1707735;84;21024;-74
2022/10/22 03:49:21;;;;;;;19.98;14.58;;;;;;;10.81;96.10;100152.33;1707403;83;21123;-74
2022/10/22 03:51:48;;;;;;;20.02;13.78;;;;;;;10.78;96.06;100153.77;1692584;84;21473;-79
2022/10/22 03:54:16;;;;;;;16.62;13.58;;;;;;;10.76;96.06;100152.53;1662657;84;21019;-75
2022/10/22 03:56:43;;;;;;;16.83;13.83;;;;;;;10.75;95.96;100160.45;1682792;84;21096;-74
2022/10/22 03:59:12;;;;;;;18.98;13.90;;;;;;;10.70;95.90;100156.73;1676260;84;21107;-74
2022/10/22 04:01:39;;;;;;;22.25;14.45;;;;;;;10.69;95.94;100166.34;1676204;84;21986;-74
2022/10/22 04:04:06;;;;;;;18.10;14.28;;;;;;;10.69;95.94;100161.56;1650359;85;21496;-73
2022/10/22 04:06:33;;;;;;;17.23;13.85;;;;;;;10.67;95.94;100153.77;1683141;83;21048;-73
2022/10/22 04:09:01;;;;;;;19.12;13.32;;;;;;;10.65;95.82;100155.59;1672359;84;20959;-74
2022/10/22 04:11:28;;;;;;;16.07;12.60;;;;;;;10.64;95.95;100160.45;1670565;84;21025;-73
2022/10/22 04:13:57;;;;;;;16.80;13.37;;;;;;;10.62;95.88;100166.67;1674645;84;21566;-73
2022/10/22 04:16:24;;;;;;;17.77;12.68;;;;;;;10.61;95.81;100175.44;1658115;84;21039;-74
2022/10/22 04:18:51;;;;;;;17.47;13.63;;;;;;;10.60;95.95;100180.30;1676582;84;21064;-74
2022/10/22 04:21:19;;;;;;;17.27;13.13;;;;;;;10.61;95.98;100174.12;1677082;84;20956;-76
2022/10/22 04:23:48;;;;;;;17.07;13.72;;;;;;;10.62;96.16;100159.66;1676456;84;21004;-73
2022/10/22 04:26:17;;;;;;;16.32;13.50;;;;;;;10.60;96.08;100153.63;1676928;84;21119;-73
2022/10/22 04:28:45;;;;;;;17.17;13.80;;;;;;;10.56;95.93;100159.04;1707429;84;21468;-79
2022/10/22 04:31:16;;;;;;;17.20;13.18;;;;;;;10.54;95.93;100171.38;1707596;84;21086;-74
2022/10/22 04:33:43;;;;;;;16.45;12.58;;;;;;;10.51;95.93;100173.66;1707643;84;21011;-74
2022/10/22 04:36:16;;;;;;;17.40;13.35;;;;;;;10.49;96.12;100167.16;1707971;84;21013;-78
2022/10/22 04:38:46;;;;;;;16.23;12.40;;;;;;;10.51;96.25;100175.44;1707774;84;22705;-74
2022/10/22 04:41:24;;;;;;;16.62;12.75;;;;;;;10.53;96.37;100181.44;1696700;84;21042;-73
2022/10/22 04:43:54;;;;;;;17.40;13.53;;;;;;;10.53;96.27;100181.44;1673347;84;21028;-73
2022/10/22 04:46:21;;;;;;;18.47;13.40;;;;;;;10.52;96.29;100187.61;1671850;84;21525;-73
2022/10/22 04:48:50;;;;;;;19.87;13.43;;;;;;;10.52;96.32;100192.85;1675805;83;21072;-72
2022/10/22 04:51:20;;;;;;;17.73;12.88;;;;;;;10.52;96.24;100200.71;1642915;85;21101;-72
2022/10/22 04:53:48;;;;;;;20.15;13.68;;;;;;;10.51;96.37;100202.48;1681126;83;21568;-72
2022/10/22 04:56:19;;;;;;;16.35;12.85;;;;;;;10.51;96.26;100197.70;1680918;83;21590;-72
2022/10/22 04:58:52;;;;;;;18.32;13.95;;;;;;;10.49;96.31;100196.45;1680882;83;21123;-72
2022/10/22 05:01:23;;;;;;;18.57;12.88;;;;;;;10.48;96.39;100200.84;1680965;83;21056;-72
2022/10/22 05:03:53;;;;;;;16.42;13.75;;;;;;;10.48;96.60;100205.23;1681104;83;21128;-72
2022/10/22 05:06:22;;;;;;;18.75;13.60;;;;;;;10.48;96.46;100203.92;1681041;83;28120;-72
2022/10/22 05:08:55;;;;;;;16.00;13.08;;;;;;;10.46;96.30;100199.19;1680955;83;21043;-73
2022/10/22 05:11:33;;;;;;;18.37;13.53;;;;;;;10.41;96.23;100194.13;1664163;84;21105;-73
2022/10/22 05:14:04;;;;;;;17.77;13.43;;;;;;;10.41;96.45;100191.97;1635298;85;21460;-75
2022/10/22 05:16:32;;;;;;;17.07;13.20;;;;;;;10.43;96.65;100196.70;1681533;83;21121;-72
2022/10/22 05:19:01;;;;;;;19.13;13.13;;;;;;;10.44;96.63;100198.39;1681023;83;21028;-73
2022/10/22 05:21:28;;;;;;;17.90;12.93;;;;;;;10.44;96.66;100191.84;1681044;85;21103;-73
2022/10/22 05:23:58;;;;;;;17.50;13.28;;;;;;;10.45;96.64;100197.03;1680957;83;21970;-73
2022/10/22 05:26:26;;;;;;;15.65;12.18;;;;;;;10.49;96.83;100199.06;1681010;83;21052;-72
2022/10/22 05:28:53;;;;;;;16.42;12.88;;;;;;;10.48;96.86;100195.59;1680025;83;21216;-72
2022/10/22 05:31:20;;;;;;;17.60;13.00;;;;;;;10.49;96.67;100200.38;1680404;83;21038;-72
2022/10/22 05:33:47;;;;;;;16.12;12.58;;;;;;;10.47;96.64;100200.45;1680083;83;21956;-72
2022/10/22 05:36:19;;;;;;;17.05;12.53;;;;;;;10.48;96.65;100203.46;1680652;83;21002;-72
2022/10/22 05:38:46;;;;;;;17.25;12.98;;;;;;;10.47;96.67;100205.69;1680005;83;21529;-73
2022/10/22 05:41:23;;;;;;;17.95;12.65;;;;;;;10.48;96.74;100208.70;1680234;83;21807;-75
2022/10/22 05:43:52;;;;;;;16.20;12.10;;;;;;;10.47;96.78;100210.94;1663148;84;21017;-72
2022/10/22 05:46:22;;;;;;;18.65;13.68;;;;;;;10.49;96.87;100213.48;1680376;83;21052;-71
2022/10/22 05:48:56;;;;;;;18.98;12.80;;;;;;;10.51;96.99;100226.53;1677450;83;21292;-75
2022/10/22 05:51:25;;;;;;;16.62;12.93;;;;;;;10.51;97.00;100231.31;1665294;84;21081;-75
2022/10/22 05:53:58;;;;;;;17.40;12.23;;;;;;;10.51;96.90;100233.08;1669590;84;21153;-73
2022/10/22 05:56:27;;;;;;;16.32;12.20;;;;;;;10.51;97.00;100235.24;1670307;84;21037;-75
2022/10/22 05:58:55;;;;;;;16.90;12.75;;;;;;;10.53;97.02;100237.35;1670819;84;21041;-72
2022/10/22 06:01:26;;;;;;;15.70;12.13;;;;;;;10.55;96.90;100247.76;1670383;84;21300;-73
2022/10/22 06:03:56;;;;;;;16.45;12.18;;;;;;;10.55;96.85;100263.48;1670462;84;21096;-73
2022/10/22 06:06:37;;;;;;;17.90;11.75;;;;;;;10.54;96.79;100265.72;1670492;84;21362;-72
2022/10/22 06:09:11;;;;;;;18.60;12.60;;;;;;;10.56;96.94;100265.18;1658631;84;20980;-72
2022/10/22 06:11:38;;;;;;;18.95;13.53;;;;;;;10.58;97.02;100256.34;1670230;84;22876;-73
2022/10/22 06:14:05;;;;;;;18.12;12.65;;;;;;;10.58;96.96;100253.72;1670250;84;21037;-72
2022/10/22 06:16:32;;;;;;;16.07;12.60;;;;;;;10.60;96.98;100258.92;1670792;84;22213;-72
2022/10/22 06:19:03;;;;;;;15.50;12.00;;;;;;;10.61;97.03;100265.39;1670263;84;21307;-72
2022/10/22 06:21:31;;;;;;;17.33;12.70;;;;;;;10.62;96.99;100276.30;1670653;84;21622;-73
2022/10/22 06:24:00;;;;;;;19.82;11.90;;;;;;;10.65;97.06;100273.55;1670375;84;21523;-72
2022/10/22 06:26:28;;;;;;;16.73;12.40;;;;;;;10.66;97.07;100271.78;1662968;84;21049;-72
2022/10/22 06:28:56;;;;;;;15.68;11.93;;;;;;;10.67;96.98;100263.02;1670656;84;21097;-72
2022/10/22 06:31:25;;;;;;;15.10;11.73;;;;;;;10.68;96.97;100271.27;1670213;84;21148;-72
2022/10/22 06:33:52;;;;;;;18.07;12.65;;;;;;;10.69;97.09;100278.20;1670706;84;21053;-72
2022/10/22 06:36:22;;;;;;;18.70;11.50;;;;;;;10.71;97.17;100279.85;1670156;84;20957;-72
2022/10/22 06:38:53;;;;;;;16.73;12.58;;;;;;;10.74;97.19;100279.34;1670663;84;21088;-71
2022/10/22 06:41:21;;;;;;;17.15;12.40;;;;;;;10.78;97.36;100273.05;1667477;84;21050;-71
2022/10/22 06:43:48;;;;;;;19.80;12.37;;;;;;;10.81;97.24;100273.80;1674842;84;21126;-73
2022/10/22 06:46:19;;;;;;;14.18;11.53;;;;;;;10.83;97.21;100273.27;1695314;84;21079;-73
2022/10/22 06:48:57;;;;;;;14.93;10.90;;;;;;;10.90;97.26;100282.60;1696674;83;21182;-72
2022/10/22 06:51:26;;;;;;;15.88;12.25;;;;;;;10.96;97.26;100284.13;1702460;83;20985;-72
2022/10/22 06:53:54;;;;;;;21.55;11.35;;;;;;;11.00;97.19;100276.97;1702716;84;21160;-73
2022/10/22 06:56:24;;;;;;;14.50;11.53;;;;;;;11.02;97.18;100286.95;1702353;84;21136;-72
2022/10/22 06:58:53;;;;;;;13.85;11.20;;;;;;;11.04;97.23;100287.29;1652619;85;21513;-73
2022/10/22 07:01:28;;;;;;;14.95;11.10;;;;;;;11.07;97.23;100295.49;1678284;83;21099;-82
2022/10/22 07:03:56;;;;;;;17.82;10.90;;;;;;;11.07;97.04;100294.18;1674570;84;21119;-71
2022/10/22 07:06:24;;;;;;;15.05;10.68;;;;;;;11.08;96.90;100297.19;1673888;84;21035;-71
2022/10/22 07:08:54;;;;;;;14.53;9.88;;;;;;;11.11;96.96;100287.87;1664959;84;21130;-70
2022/10/22 07:11:38;;;;;;;13.32;9.95;;;;;;;11.13;96.82;100297.39;1669506;84;21007;-71
2022/10/22 07:14:05;;;;;;;17.37;10.30;;;;;;;11.16;96.77;100295.95;1654108;85;21505;-71
2022/10/22 07:16:32;;;;;;;14.00;9.85;;;;;;;11.18;96.73;100294.59;1660593;85;21064;-81
2022/10/22 07:19:01;;;;;;;13.62;10.13;;;;;;;11.24;96.85;100284.30;1665148;84;21572;-91
2022/10/22 07:21:29;;;;;;;13.10;10.23;;;;;;;11.31;97.09;100281.83;1649462;85;21117;-71
2022/10/22 07:23:58;;;;;;;14.10;10.35;;;;;;;11.36;97.02;100285.97;1670308;84;20948;-75
2022/10/22 07:26:29;;;;;;;16.80;9.88;;;;;;;11.40;96.70;100268.31;1674639;84;21015;-80
2022/10/22 07:28:55;;;;;;;12.98;9.93;;;;;;;11.44;96.77;100263.31;1702571;84;21056;-71
2022/10/22 07:31:22;;;;;;;12.60;9.93;;;;;;;11.47;96.64;100261.86;1702412;84;21004;-74
2022/10/22 07:33:50;;;;;;;14.90;9.93;;;;;;;11.48;96.50;100264.06;1702364;84;21294;-74
2022/10/22 07:36:17;;;;;;;14.03;9.55;;;;;;;11.52;96.58;100266.93;1702525;84;21343;-71
2022/10/22 07:38:51;;;;;;;14.18;9.63;;;;;;;11.55;96.51;100261.55;1702366;84;21048;-80
2022/10/22 07:41:18;;;;;;;11.80;9.68;;;;;;;11.57;96.31;100255.78;1684782;84;21490;-71
2022/10/22 07:43:45;;;;;;;12.25;9.73;;;;;;;11.61;96.43;100274.39;1689863;84;21557;-75
2022/10/22 07:46:12;;;;;;;12.85;9.25;;;;;;;11.63;96.17;100280.44;1702604;84;21185;-81
2022/10/22 07:48:40;;;;;;;15.48;11.75;;;;;;;11.68;96.35;100273.22;1689680;84;21024;-71
2022/10/22 07:51:07;;;;;;;16.02;11.53;;;;;;;11.73;96.31;100281.76;1702331;84;21468;-84
2022/10/22 07:53:34;;;;;;;12.93;10.58;;;;;;;11.78;96.27;100288.13;1702339;84;21040;-72
2022/10/22 07:56:02;;;;;;;12.30;10.23;;;;;;;11.80;96.10;100288.43;1702740;84;21043;-73
2022/10/22 07:58:29;;;;;;;16.02;10.53;;;;;;;11.83;96.14;100287.01;1702405;84;21132;-79
2022/10/22 08:01:04;;;;;;;17.77;12.03;;;;;;;11.89;96.22;100281.98;1702465;84;20917;-77
2022/10/22 08:03:28;;;;;;;15.83;10.78;;;;;;;11.95;96.29;100284.33;1701466;84;21059;-72
2022/10/22 08:05:57;;;;;;;12.35;9.65;;;;;;;12.01;96.24;100287.98;1702603;84;21044;-75
2022/10/22 08:08:25;;;;;;;13.78;9.58;;;;;;;12.07;96.22;100282.06;1702394;84;21008;-72
2022/10/22 08:10:52;;;;;;;17.25;10.95;;;;;;;12.12;96.12;100282.25;1690056;84;21120;-73
2022/10/22 08:13:21;;;;;;;16.02;10.93;;;;;;;12.15;95.79;100294.40;1702329;84;21019;-79
2022/10/22 08:15:48;;;;;;;13.58;10.08;;;;;;;12.19;95.68;100294.64;1702651;83;21474;-78
2022/10/22 08:18:15;;;;;;;11.83;9.40;;;;;;;12.23;95.77;100293.59;1702450;83;21027;-72
2022/10/22 08:20:43;;;;;;;14.25;11.10;;;;;;;12.30;95.95;100296.78;1702381;84;21273;-81
2022/10/22 08:23:11;;;;;;;13.70;9.73;;;;;;;12.33;95.66;100288.75;1702641;84;21818;-72
2022/10/22 08:25:38;;;;;;;12.75;10.00;;;;;;;12.35;95.39;100284.28;1702284;84;20952;-72
2022/10/22 08:28:05;;;;;;;12.47;9.80;;;;;;;12.36;95.42;100289.92;1672738;85;21547;-74
2022/10/22 08:30:32;;;;;;;13.60;9.68;;;;;;;12.41;95.38;100290.56;1702474;84;21004;-73
2022/10/22 08:32:59;;;;;;;14.18;10.40;;;;;;;12.43;95.21;100290.89;1702714;84;21035;-71
2022/10/22 08:35:27;;;;;;;13.20;10.20;;;;;;;12.47;95.14;100292.91;1702449;83;21967;-73
2022/10/22 08:37:54;;;;;;;14.98;10.28;;;;;;;12.50;95.14;100294.10;1702561;83;20920;-73
2022/10/22 08:40:36;;;;;;;15.40;10.03;;;;;;;12.54;95.02;100300.06;1689790;85;21092;-73
2022/10/22 08:43:45;;;;;;;13.18;10.40;;;;;;;12.56;94.95;100303.02;1702920;84;21012;-73
2022/10/22 08:46:52;;;;;;;14.10;10.83;;;;;;;12.57;94.77;100320.48;1690218;85;20988;-73
2022/10/22 08:49:27;;;;;;;13.05;9.73;;;;;;;12.56;94.63;100325.36;1702723;84;21103;-74
2022/10/22 08:51:57;;;;;;;14.45;9.85;;;;;;;12.52;94.52;100321.62;1702289;83;20996;-78
2022/10/22 08:54:45;;;;;;;16.27;11.18;;;;;;;12.48;94.49;100308.62;1690277;84;21449;-73
2022/10/22 08:57:36;;;;;;;14.68;10.25;;;;;;;12.46;94.38;100303.04;1702444;84;21425;-78
2022/10/22 09:00:19;;;;;;;12.80;10.95;;;;;;;12.43;94.39;100317.64;1638825;84;20980;-78
2022/10/22 09:03:25;;;;;;;17.23;9.93;;;;;;;12.39;94.25;100306.89;1701168;84;22055;-73
2022/10/22 09:06:10;;;;;;;13.58;10.75;;;;;;;12.34;94.42;100312.81;1702690;83;20909;-76
2022/10/22 09:08:38;;;;;;;14.00;10.50;;;;;;;12.33;94.77;100318.51;1702519;83;21023;-78
2022/10/22 09:11:14;;;;;;;14.43;10.85;;;;;;;12.28;95.04;100318.73;1690134;84;21518;-82
2022/10/22 09:13:44;;;;;;;18.77;11.00;;;;;;;12.22;94.95;100326.91;1690074;84;21047;-73
2022/10/22 09:16:37;;;;;;;21.52;10.98;;;;;;;12.13;95.07;100327.77;1702491;84;21027;-75
2022/10/22 09:19:34;;;;;;;13.80;10.65;;;;;;;12.10;95.46;100340.57;1690074;84;21059;-72
2022/10/22 09:22:29;;;;;;;18.23;11.00;;;;;;;12.04;95.67;100342.16;1694018;84;21106;-71
2022/10/22 09:25:13;;;;;;;15.78;11.48;;;;;;;12.00;96.11;100349.80;1660035;85;21035;-73
2022/10/22 09:27:40;;;;;;;14.60;11.18;;;;;;;11.92;96.04;100347.50;1660201;84;21050;-71
2022/10/22 09:30:15;;;;;;;17.87;11.88;;;;;;;11.84;96.30;100346.95;1660402;84;21147;-71
2022/10/22 09:32:42;;;;;;;16.45;11.43;;;;;;;11.77;96.49;100348.96;1659310;84;21026;-71
2022/10/22 09:35:12;;;;;;;21.05;11.75;;;;;;;11.73;96.93;100355.28;1660988;84;21065;-70
2022/10/22 09:37:51;;;;;;;13.58;11.28;;;;;;;11.69;97.16;100355.00;1661483;84;21566;-71
2022/10/22 09:40:18;;;;;;;16.10;11.48;;;;;;;11.68;97.56;100359.86;1661079;84;21114;-71
2022/10/22 09:42:46;;;;;;;16.67;12.33;;;;;;;11.69;97.90;100361.56;1659800;85;21112;-70
2022/10/22 09:45:24;;;;;;;17.25;12.47;;;;;;;11.71;98.22;100361.05;1660567;84;22132;-70
2022/10/22 09:48:17;;;;;;;17.45;11.57;;;;;;;11.72;98.38;100366.71;1662897;84;21066;-73
2022/10/22 09:50:49;;;;;;;20.08;13.00;;;;;;;11.72;98.37;100362.77;1624717;86;21102;-70
2022/10/22 09:53:29;;;;;;;18.32;12.33;;;;;;;11.74;98.77;100366.63;1624950;86;21063;-70
2022/10/22 09:55:59;;;;;;;17.25;11.93;;;;;;;11.75;98.83;100361.33;1648251;85;21118;-71
2022/10/22 09:58:29;;;;;;;17.48;11.97;;;;;;;11.79;98.92;100368.60;1647161;86;21112;-70
2022/10/22 10:00:59;;;;;;;15.98;11.80;;;;;;;11.79;99.09;100369.92;1649253;86;20975;-71
2022/10/22 10:03:36;;;;;;;16.45;12.53;;;;;;;11.80;99.14;100369.83;1647006;86;20975;-70
2022/10/22 10:06:02;;;;;;;18.25;12.33;;;;;;;11.82;99.18;100359.28;1642766;86;21043;-70
2022/10/22 10:08:29;;;;;;;18.17;12.18;;;;;;;11.81;99.08;100358.89;1643742;86;21997;-70
2022/10/22 10:11:02;;;;;;;17.67;12.65;;;;;;;11.81;99.17;100362.84;1644289;86;21066;-70
2022/10/22 10:13:48;;;;;;;15.43;11.83;;;;;;;11.81;99.27;100373.34;1626025;86;21570;-73
2022/10/22 10:16:59;;;;;;;16.87;12.20;;;;;;;11.80;99.46;100368.52;1648755;86;21058;-70
2022/10/22 10:19:37;;;;;;;17.62;12.82;;;;;;;11.81;99.53;100368.09;1649164;86;21029;-70
2022/10/22 10:22:25;;;;;;;15.68;11.55;;;;;;;11.82;99.74;100360.59;1649089;85;21133;-70
2022/10/22 10:25:36;;;;;;;14.33;11.68;;;;;;;11.83;99.86;100368.85;1622852;86;21537;-71
2022/10/22 10:28:42;;;;;;;16.30;12.35;;;;;;;11.84;100.00;100367.48;1623056;86;21074;-70
2022/10/22 10:31:20;;;;;;;20.20;12.18;;;;;;;11.87;100.00;100372.26;1648824;86;21058;-76
2022/10/22 10:34:05;;;;;;;20.12;12.45;;;;;;;11.88;100.00;100368.70;1648431;85;21079;-72
2022/10/22 10:36:49;;;;;;;20.32;12.88;;;;;;;11.86;100.00;100367.91;1647485;85;21254;-71
2022/10/22 10:39:43;;;;;;;72.03;26.90;;;;;;;11.84;100.00;100366.17;1648808;86;21082;-73
2022/10/22 10:42:28;;;;;;;32.85;18.27;;;;;;;11.85;100.00;100360.45;1649349;86;21047;-71
2022/10/22 10:45:17;;;;;;;20.55;13.93;;;;;;;11.87;100.00;100366.54;1648931;86;21074;-71
2022/10/22 10:48:26;;;;;;;135.63;75.52;;;;;;;11.88;100.00;100360.82;1646948;86;21651;-71
2022/10/22 10:51:42;;;;;;;103.07;49.93;;;;;;;11.87;100.00;100356.03;1648297;84;21616;-70
2022/10/22 10:54:41;;;;;;;83.22;35.05;;;;;;;11.89;100.00;100350.27;1658636;84;21279;-71
2022/10/22 10:57:23;;;;;;;29.32;17.87;;;;;;;11.92;100.00;100351.44;1659806;84;21074;-72
2022/10/22 11:00:17;;;;;;;19.80;13.25;;;;;;;11.95;100.00;100354.39;1660241;84;21046;-71
2022/10/22 11:03:08;;;;;;;17.27;12.68;;;;;;;11.96;100.00;100353.00;1660897;84;21448;-70
2022/10/22 11:05:59;;;;;;;30.35;15.83;;;;;;;11.99;100.00;100355.48;1661081;84;21170;-70
2022/10/22 11:08:34;;;;;;;165.30;58.95;;;;;;;12.04;100.00;100351.36;1662200;84;21043;-69
2022/10/22 11:11:09;;;;;;;131.63;50.20;;;;;;;12.12;100.00;100351.03;1645615;84;21058;-71
2022/10/22 11:13:44;;;;;;;95.28;42.23;;;;;;;12.19;100.00;100354.64;1665517;84;21065;-70
2022/10/22 11:16:38;;;;;;;52.48;26.02;;;;;;;12.24;100.00;100356.58;1658980;84;21622;-70
2022/10/22 11:19:33;;;;;;;20.50;12.75;;;;;;;12.31;100.00;100352.37;1658687;84;21151;-71
2022/10/22 11:22:14;;;;;;;21.25;13.65;;;;;;;12.36;100.00;100343.37;1658488;84;21093;-70
2022/10/22 11:24:50;;;;;;;16.17;9.65;;;;;;;12.47;100.00;100342.85;1658687;84;21055;-70
2022/10/22 11:27:56;;;;;;;15.13;8.78;;;;;;;12.57;100.00;100340.20;1667804;84;21029;-70
2022/10/22 11:30:27;;;;;;;12.93;7.97;;;;;;;12.64;100.00;100340.78;1670513;84;21057;-71
2022/10/22 11:32:59;;;;;;;13.20;7.80;;;;;;;12.71;100.00;100341.72;1671717;84;21127;-71
2022/10/22 11:35:30;;;;;;;11.73;6.62;;;;;;;12.77;100.00;100345.84;1693866;84;21523;-72
2022/10/22 11:37:58;;;;;;;12.45;7.62;;;;;;;12.82;100.00;100341.22;1695606;84;21260;-71
2022/10/22 11:40:36;;;;;;;11.73;8.20;;;;;;;12.87;100.00;100344.48;1695320;83;21035;-71